Time;durP1;ratioP1;P1;durP2;ratioP2;P2;SDS_P1;SDS_P2;PMS_P1;PMS_P2;Temp;Humidity;BMP_temperature;BMP_pressure;BME280_temperature;BME280_humidity;BME280_pressure;Samples;Min_cycle;Max_cycle;Signal;HPM_P1;HPM_P2
2022/06/08 00:00:45;;;;;;;;;;;;;;;17.09;73.48;99554.03;1085644;54;19974;-76
2022/06/08 00:01:49;;;;;;;;;;;;;;;17.10;73.45;99554.84;1085627;54;19938;-77
2022/06/08 00:02:55;;;;;;;;;;;;;;;17.02;73.65;99560.41;1085811;54;19958;-75
2022/06/08 00:04:00;;;;;;;;;;;;;;;17.11;73.11;99559.22;1085907;54;19955;-77
2022/06/08 00:05:01;;;;;;;;;;;;;;;17.14;72.94;99553.41;1085505;54;19970;-76
2022/06/08 00:06:06;;;;;;;;;;;;;;;17.14;73.24;99553.41;1085103;54;19953;-76
2022/06/08 00:07:07;;;;;;;;;;;;;;;17.22;72.43;99545.16;1084862;54;19956;-75
2022/06/08 00:08:11;;;;;;;;;;;;;;;17.21;72.49;99546.19;1084581;54;19951;-78
2022/06/08 00:09:12;;;;;;;;;;;;;;;17.21;72.55;99543.47;1085105;54;20016;-76
2022/06/08 00:10:19;;;;;;;;;;;;;;;17.19;72.96;99550.13;1084798;54;19957;-77
2022/06/08 00:11:20;;;;;;;;;;;;;;;17.02;73.09;99544.19;1084669;54;19947;-78
2022/06/08 00:12:23;;;;;;;;;;;;;;;17.03;73.41;99548.56;1085527;39;20417;-77
2022/06/08 00:13:25;;;;;;;;;;;;;;;17.06;73.48;99550.88;1084822;54;19947;-76
2022/06/08 00:14:28;;;;;;;;;;;;;;;17.13;73.03;99551.75;1084926;54;20042;-77
2022/06/08 00:15:30;;;;;;;;;;;;;;;17.07;73.31;99552.56;1084704;54;19950;-78
2022/06/08 00:16:34;;;;;;;;;;;;;;;16.97;73.55;99542.09;1085485;47;20002;-76
2022/06/08 00:17:35;;;;;;;;;;;;;;;16.98;73.58;99546.47;1085401;54;19957;-76
2022/06/08 00:18:40;;;;;;;;;;;;;;;16.88;73.98;99549.50;1085239;54;19950;-75
2022/06/08 00:19:41;;;;;;;;;;;;;;;16.95;73.41;99555.81;1085772;54;19983;-75
2022/06/08 00:20:45;;;;;;;;;;;;;;;17.03;73.11;99548.56;1085667;54;19981;-75
2022/06/08 00:21:46;;;;;;;;;;;;;;;16.94;73.35;99554.13;1085242;54;19946;-76
2022/06/08 00:22:50;;;;;;;;;;;;;;;16.97;73.52;99547.50;1085807;54;19942;-78
2022/06/08 00:23:51;;;;;;;;;;;;;;;17.01;73.11;99548.78;1085748;54;19947;-75
2022/06/08 00:24:55;;;;;;;;;;;;;;;16.87;73.59;99547.00;1084894;54;19951;-76
2022/06/08 00:26:02;;;;;;;;;;;;;;;16.95;73.10;99550.41;1085088;54;19970;-78
2022/06/08 00:27:03;;;;;;;;;;;;;;;17.05;72.89;99549.22;1085608;54;19950;-76
2022/06/08 00:28:07;;;;;;;;;;;;;;;17.05;72.75;99546.50;1085655;54;19946;-76
2022/06/08 00:29:08;;;;;;;;;;;;;;;17.09;72.59;99545.09;1085472;54;19953;-76
2022/06/08 00:30:12;;;;;;;;;;;;;;;17.08;72.51;99549.66;1085207;54;19994;-75
2022/06/08 00:31:14;;;;;;;;;;;;;;;17.05;72.88;99544.63;1084843;54;19981;-76
2022/06/08 00:32:18;;;;;;;;;;;;;;;17.06;72.64;99551.72;1084460;39;20389;-76
2022/06/08 00:33:19;;;;;;;;;;;;;;;16.96;72.87;99540.44;1084956;46;19958;-76
2022/06/08 00:34:23;;;;;;;;;;;;;;;17.01;73.10;99543.38;1085752;54;19954;-77
2022/06/08 00:35:24;;;;;;;;;;;;;;;17.07;72.57;99537.19;1085583;54;19958;-76
2022/06/08 00:36:28;;;;;;;;;;;;;;;17.00;72.44;99536.31;1085101;54;20030;-78
2022/06/08 00:37:29;;;;;;;;;;;;;;;16.91;73.14;99535.59;1085038;54;19955;-76
2022/06/08 00:38:33;;;;;;;;;;;;;;;16.97;72.89;99537.56;1085234;54;19951;-77
2022/06/08 00:39:34;;;;;;;;;;;;;;;17.07;72.53;99536.34;1085778;54;19950;-77
2022/06/08 00:40:43;;;;;;;;;;;;;;;17.00;72.73;99525.50;1086400;39;20549;-76
2022/06/08 00:41:48;;;;;;;;;;;;;;;16.86;73.47;99529.97;1085614;54;19954;-76
2022/06/08 00:42:53;;;;;;;;;;;;;;;16.89;73.19;99526.03;1085979;54;20050;-76
2022/06/08 00:43:55;;;;;;;;;;;;;;;16.96;72.84;99533.19;1085795;54;19950;-76
2022/06/08 00:45:01;;;;;;;;;;;;;;;16.81;73.73;99529.75;1085354;54;19950;-79
2022/06/08 00:46:03;;;;;;;;;;;;;;;16.77;73.77;99531.97;1086275;54;19946;-77
2022/06/08 00:47:10;;;;;;;;;;;;;;;16.78;74.02;99522.84;1087211;54;19957;-77
2022/06/08 00:48:11;;;;;;;;;;;;;;;16.84;73.20;99532.03;1087342;54;19949;-78
2022/06/08 00:49:17;;;;;;;;;;;;;;;16.87;73.29;99534.34;1090314;31;20486;-76
2022/06/08 00:50:20;;;;;;;;;;;;;;;16.87;73.60;99525.41;1085425;54;19950;-76
2022/06/08 00:51:23;;;;;;;;;;;;;;;16.95;73.15;99523.41;1086197;54;20036;-76
2022/06/08 00:52:26;;;;;;;;;;;;;;;16.97;73.09;99520.50;1085696;54;19959;-77
2022/06/08 00:53:33;;;;;;;;;;;;;;;16.97;72.89;99532.16;1085925;54;19951;-77
2022/06/08 00:54:35;;;;;;;;;;;;;;;17.02;72.60;99525.31;1086588;47;19939;-75
2022/06/08 00:55:40;;;;;;;;;;;;;;;16.89;73.02;99524.19;1085304;54;19954;-76
2022/06/08 00:56:44;;;;;;;;;;;;;;;16.88;73.04;99527.06;1085180;54;19947;-76
2022/06/08 00:57:53;;;;;;;;;;;;;;;16.89;72.82;99524.19;1084326;54;20050;-76
2022/06/08 00:58:54;;;;;;;;;;;;;;;16.82;73.22;99521.44;1084349;54;19939;-75
2022/06/08 00:59:59;;;;;;;;;;;;;;;16.91;73.17;99527.50;1084268;54;19950;-75
2022/06/08 01:01:00;;;;;;;;;;;;;;;16.96;72.65;99525.09;1085499;39;20335;-75
2022/06/08 01:02:05;;;;;;;;;;;;;;;16.99;72.72;99519.28;1084300;54;19957;-76
2022/06/08 01:03:06;;;;;;;;;;;;;;;17.03;72.19;99513.47;1084475;54;20457;-75
2022/06/08 01:04:11;;;;;;;;;;;;;;;17.06;72.21;99524.72;1083751;54;19946;-75
2022/06/08 01:05:16;;;;;;;;;;;;;;;17.02;72.68;99520.75;1083452;54;20034;-77
2022/06/08 01:06:24;;;;;;;;;;;;;;;17.07;72.24;99520.97;1084520;47;19947;-75
2022/06/08 01:07:25;;;;;;;;;;;;;;;17.06;72.29;99516.59;1083872;54;19974;-75
2022/06/08 01:08:31;;;;;;;;;;;;;;;16.91;72.40;99519.41;1083969;54;19965;-75
2022/06/08 01:09:38;;;;;;;;;;;;;;;16.93;72.81;99509.28;1085142;39;20361;-76
2022/06/08 01:10:44;;;;;;;;;;;;;;;16.81;72.74;99516.25;1084102;54;19959;-75
2022/06/08 01:11:46;;;;;;;;;;;;;;;16.72;73.37;99514.75;1084058;54;20527;-75
2022/06/08 01:12:52;;;;;;;;;;;;;;;16.79;73.16;99510.22;1083319;54;19951;-76
2022/06/08 01:13:54;;;;;;;;;;;;;;;16.76;73.24;99518.69;1084194;54;19951;-75
2022/06/08 01:14:58;;;;;;;;;;;;;;;16.72;73.68;99514.75;1084353;54;19951;-74
2022/06/08 01:16:01;;;;;;;;;;;;;;;16.75;73.11;99511.63;1084543;54;19978;-74
2022/06/08 01:17:07;;;;;;;;;;;;;;;16.66;73.82;99514.50;1084244;54;19947;-75
2022/06/08 01:18:09;;;;;;;;;;;;;;;16.61;74.15;99508.88;1083971;54;20460;-76
2022/06/08 01:19:13;;;;;;;;;;;;;;;16.71;73.43;99515.78;1084277;54;19954;-75
2022/06/08 01:20:15;;;;;;;;;;;;;;;16.75;73.38;99514.31;1083843;54;19952;-75
2022/06/08 01:21:34;;;;;;;;;;;;;;;16.75;73.36;99511.63;1083270;54;19962;-76
2022/06/08 01:22:40;;;;;;;;;;;;;;;16.63;73.78;99516.75;1084088;54;19939;-76
2022/06/08 01:23:41;;;;;;;;;;;;;;;16.67;73.17;99510.75;1083854;54;19946;-76
2022/06/08 01:24:47;;;;;;;;;;;;;;;16.69;72.92;99514.09;1084309;54;19939;-76
2022/06/08 01:26:03;;;;;;;;;;;;;;;16.81;72.55;99516.25;1084682;39;20366;-75
2022/06/08 01:27:24;;;;;;;;;;;;;;;16.60;73.27;99509.03;1086103;39;20330;-76
2022/06/08 01:28:33;;;;;;;;;;;;;;;16.62;73.38;99507.84;1084169;54;19939;-75
2022/06/08 01:29:36;;;;;;;;;;;;;;;16.68;72.62;99507.03;1084401;54;19953;-75
2022/06/08 01:30:46;;;;;;;;;;;;;;;16.72;72.87;99501.25;1084384;39;20373;-75
2022/06/08 01:32:02;;;;;;;;;;;;;;;16.77;72.48;99504.19;1084058;54;19943;-76
2022/06/08 01:33:24;;;;;;;;;;;;;;;16.80;72.10;99501.91;1084044;46;19989;-76
2022/06/08 01:34:32;;;;;;;;;;;;;;;16.76;72.21;99500.66;1083952;54;19947;-76
2022/06/08 01:35:42;;;;;;;;;;;;;;;16.73;72.25;99501.03;1084090;54;19945;-74
2022/06/08 01:36:59;;;;;;;;;;;;;;;16.69;72.36;99502.47;1084162;54;20010;-75
2022/06/08 01:38:07;;;;;;;;;;;;;;;16.64;72.52;99500.34;1083049;54;19981;-75
2022/06/08 01:39:19;;;;;;;;;;;;;;;16.72;72.28;99498.56;1083792;47;19942;-75
2022/06/08 01:40:35;;;;;;;;;;;;;;;16.76;71.95;99502.50;1083858;54;19973;-74
2022/06/08 01:41:46;;;;;;;;;;;;;;;16.63;72.44;99492.47;1083706;54;19982;-73
2022/06/08 01:42:55;;;;;;;;;;;;;;;16.66;72.30;99492.91;1083862;54;19962;-74
2022/06/08 01:44:07;;;;;;;;;;;;;;;16.75;72.02;99490.03;1083936;54;19966;-75
2022/06/08 01:45:33;;;;;;;;;;;;;;;16.80;71.68;99488.41;1084642;54;19946;-76
2022/06/08 01:46:42;;;;;;;;;;;;;;;16.86;71.62;99480.56;1083959;54;19939;-74
2022/06/08 01:47:52;;;;;;;;;;;;;;;16.80;71.91;99484.91;1084452;54;19973;-74
2022/06/08 01:49:15;;;;;;;;;;;;;;;16.86;71.46;99483.25;1084150;54;19946;-74
2022/06/08 01:50:20;;;;;;;;;;;;;;;16.84;71.17;99483.44;1084276;54;20485;-73
2022/06/08 01:51:34;;;;;;;;;;;;;;;16.79;71.59;99486.75;1084183;54;19971;-74
2022/06/08 01:52:39;;;;;;;;;;;;;;;16.86;71.40;99481.38;1084287;54;19946;-73
2022/06/08 01:53:51;;;;;;;;;;;;;;;16.75;71.33;99479.25;1083560;54;20037;-74
2022/06/08 01:55:00;;;;;;;;;;;;;;;16.78;71.31;99476.16;1083719;54;19946;-75
2022/06/08 01:56:07;;;;;;;;;;;;;;;16.81;71.46;99482.00;1085081;39;20303;-76
2022/06/08 01:57:12;;;;;;;;;;;;;;;16.74;71.32;99477.56;1084228;54;19938;-74
2022/06/08 01:58:19;;;;;;;;;;;;;;;16.77;71.76;99479.88;1083456;54;19958;-75
2022/06/08 01:59:25;;;;;;;;;;;;;;;16.64;71.91;99472.56;1083529;54;19946;-75
2022/06/08 02:00:32;;;;;;;;;;;;;;;16.74;71.81;99480.28;1083439;54;19951;-74
2022/06/08 02:01:37;;;;;;;;;;;;;;;16.80;71.51;99479.50;1083191;54;19947;-74
2022/06/08 02:02:44;;;;;;;;;;;;;;;16.82;71.29;99475.56;1083247;54;19950;-75
2022/06/08 02:03:50;;;;;;;;;;;;;;;16.83;71.43;99476.38;1083454;46;19989;-75
2022/06/08 02:04:58;;;;;;;;;;;;;;;16.83;71.34;99481.78;1083534;54;19946;-74
2022/06/08 02:06:01;;;;;;;;;;;;;;;16.84;71.32;99483.44;1084027;54;19958;-74
2022/06/08 02:07:22;;;;;;;;;;;;;;;16.88;70.81;99484.72;1084036;54;20030;-74
2022/06/08 02:09:32;;;;;;;;;;;;;;;16.81;71.33;99475.75;1085966;54;19953;-78
2022/06/08 02:10:41;;;;;;;;;;;;;;;16.83;70.94;99477.22;1085840;54;19951;-78
2022/06/08 02:11:47;;;;;;;;;;;;;;;16.83;70.97;99479.06;1086177;54;19947;-78
2022/06/08 02:12:50;;;;;;;;;;;;;;;16.87;70.98;99477.66;1085855;54;19950;-78
2022/06/08 02:13:57;;;;;;;;;;;;;;;16.82;71.23;99474.72;1085587;54;19951;-77
2022/06/08 02:15:01;;;;;;;;;;;;;;;16.85;70.95;99477.00;1085905;54;19946;-79
2022/06/08 02:16:08;;;;;;;;;;;;;;;16.83;70.86;99477.22;1085611;54;19947;-79
2022/06/08 02:17:13;;;;;;;;;;;;;;;16.85;70.92;99479.72;1085604;54;19954;-78
2022/06/08 02:18:21;;;;;;;;;;;;;;;16.87;70.77;99471.41;1085894;54;20002;-78
2022/06/08 02:19:26;;;;;;;;;;;;;;;16.88;70.74;99473.94;1086587;54;19951;-77
2022/06/08 02:20:33;;;;;;;;;;;;;;;16.88;70.42;99463.13;1086292;54;19954;-78
2022/06/08 02:21:37;;;;;;;;;;;;;;;16.91;70.49;99473.50;1086545;54;20579;-77
2022/06/08 02:22:42;;;;;;;;;;;;;;;16.83;70.46;99466.44;1086535;54;19950;-78
2022/06/08 02:23:47;;;;;;;;;;;;;;;16.83;70.71;99460.19;1086309;54;19960;-76
2022/06/08 02:24:56;;;;;;;;;;;;;;;16.85;70.14;99471.63;1086029;54;19966;-78
2022/06/08 02:26:01;;;;;;;;;;;;;;;16.88;70.48;99468.53;1086448;54;19939;-77
2022/06/08 02:27:07;;;;;;;;;;;;;;;16.88;70.41;99473.06;1085967;54;20032;-78
2022/06/08 02:28:11;;;;;;;;;;;;;;;16.73;70.43;99463.25;1086576;54;20081;-78
2022/06/08 02:29:16;;;;;;;;;;;;;;;16.71;70.86;99459.91;1086695;54;19962;-79
2022/06/08 02:30:19;;;;;;;;;;;;;;;16.71;70.67;99465.31;1086383;54;19954;-79
2022/06/08 02:31:25;;;;;;;;;;;;;;;16.65;70.92;99458.84;1085984;54;20017;-79
2022/06/08 02:35:09;;;;;;;;;;;;;;;16.76;70.37;99468.28;1086513;54;19946;-78
2022/06/08 02:36:16;;;;;;;;;;;;;;;16.78;70.14;99457.25;1086200;54;19938;-79
2022/06/08 02:37:22;;;;;;;;;;;;;;;16.76;70.01;99453.94;1086202;54;19947;-78
2022/06/08 02:38:27;;;;;;;;;;;;;;;16.72;70.14;99458.06;1086255;54;19977;-78
2022/06/08 02:39:32;;;;;;;;;;;;;;;16.52;71.01;99458.78;1085758;54;19975;-77
2022/06/08 02:40:38;;;;;;;;;;;;;;;16.55;71.23;99468.34;1086696;54;19946;-79
2022/06/08 02:41:44;;;;;;;;;;;;;;;16.51;71.10;99462.50;1086755;54;20537;-79
2022/06/08 02:42:47;;;;;;;;;;;;;;;16.62;70.84;99453.03;1086844;54;19939;-79
2022/06/08 02:43:54;;;;;;;;;;;;;;;16.63;70.41;99455.50;1086051;54;19954;-78
2022/06/08 02:44:58;;;;;;;;;;;;;;;16.69;70.22;99459.28;1086235;54;19974;-78
2022/06/08 02:46:06;;;;;;;;;;;;;;;16.69;70.19;99457.44;1086513;54;20449;-78
2022/06/08 02:47:16;;;;;;;;;;;;;;;16.73;70.41;99454.31;1086562;54;19971;-79
2022/06/08 02:48:17;;;;;;;;;;;;;;;16.65;70.26;99453.44;1086382;54;19972;-78
2022/06/08 02:49:21;;;;;;;;;;;;;;;16.68;70.27;99447.66;1085352;54;19954;-77
2022/06/08 02:50:24;;;;;;;;;;;;;;;16.66;70.28;99448.91;1085467;54;19975;-78
2022/06/08 02:51:30;;;;;;;;;;;;;;;16.71;69.93;99451.00;1086130;54;19953;-78
2022/06/08 02:52:31;;;;;;;;;;;;;;;16.71;70.24;99457.22;1086422;54;19947;-77
2022/06/08 02:53:49;;;;;;;;;;;;;;;16.72;70.16;99455.38;1086249;54;19951;-80
2022/06/08 02:54:53;;;;;;;;;;;;;;;16.71;69.82;99451.81;1086223;54;19939;-78
2022/06/08 02:56:01;;;;;;;;;;;;;;;16.71;70.05;99451.81;1086209;54;19947;-78
2022/06/08 02:57:09;;;;;;;;;;;;;;;16.72;70.24;99452.69;1086561;54;19973;-79
2022/06/08 02:58:13;;;;;;;;;;;;;;;16.65;70.12;99447.22;1085590;54;20016;-78
2022/06/08 02:59:19;;;;;;;;;;;;;;;16.60;70.24;99444.28;1085237;54;19942;-78
2022/06/08 03:00:25;;;;;;;;;;;;;;;16.51;70.76;99451.72;1086152;54;20016;-78
2022/06/08 03:01:33;;;;;;;;;;;;;;;16.58;70.19;99454.47;1085456;54;19946;-78
2022/06/08 03:02:42;;;;;;;;;;;;;;;16.56;70.01;99441.16;1086354;54;19950;-78
2022/06/08 03:03:48;;;;;;;;;;;;;;;16.59;70.37;99448.00;1085922;54;19958;-77
2022/06/08 03:05:04;;;;;;;;;;;;;;;16.58;70.14;99443.69;1085537;54;19951;-77
2022/06/08 03:06:07;;;;;;;;;;;;;;;16.53;70.23;99444.28;1085597;54;19950;-77
2022/06/08 03:07:12;;;;;;;;;;;;;;;16.46;70.55;99455.00;1086241;39;20435;-78
2022/06/08 03:08:19;;;;;;;;;;;;;;;16.43;70.52;99447.31;1085471;54;19951;-77
2022/06/08 03:09:21;;;;;;;;;;;;;;;16.33;70.79;99444.13;1085761;54;20752;-77
2022/06/08 03:10:27;;;;;;;;;;;;;;;16.36;70.98;99447.25;1084517;54;19981;-79
2022/06/08 03:11:35;;;;;;;;;;;;;;;16.45;70.64;99447.09;1085115;46;20441;-79
2022/06/08 03:12:40;;;;;;;;;;;;;;;16.36;71.02;99444.56;1085231;54;19947;-79
2022/06/08 03:13:44;;;;;;;;;;;;;;;16.29;71.48;99441.00;1086048;54;19946;-78
2022/06/08 03:14:48;;;;;;;;;;;;;;;16.31;71.28;99447.03;1085836;54;20627;-77
2022/06/08 03:15:52;;;;;;;;;;;;;;;16.15;71.91;99447.34;1086513;54;19942;-79
2022/06/08 03:16:57;;;;;;;;;;;;;;;16.16;72.29;99443.56;1086667;54;19947;-78
2022/06/08 03:18:01;;;;;;;;;;;;;;;16.08;72.72;99447.28;1085881;54;19946;-78
2022/06/08 03:19:02;;;;;;;;;;;;;;;16.07;72.62;99442.91;1086908;54;19946;-78
2022/06/08 03:20:10;;;;;;;;;;;;;;;16.06;72.40;99439.38;1086771;54;20488;-78
2022/06/08 03:21:11;;;;;;;;;;;;;;;16.01;72.92;99441.00;1086392;54;19946;-78
2022/06/08 03:22:16;;;;;;;;;;;;;;;16.10;72.44;99441.69;1086778;54;19946;-78
2022/06/08 03:23:18;;;;;;;;;;;;;;;16.12;72.58;99439.63;1085927;54;20003;-79
2022/06/08 03:24:21;;;;;;;;;;;;;;;16.06;72.87;99443.94;1086318;54;19942;-78
2022/06/08 03:25:25;;;;;;;;;;;;;;;16.09;72.47;99442.69;1086103;54;19951;-78
2022/06/08 03:26:29;;;;;;;;;;;;;;;16.02;72.71;99437.25;1087227;54;19958;-79
2022/06/08 03:27:33;;;;;;;;;;;;;;;15.99;72.93;99443.06;1087070;54;19973;-79
2022/06/08 03:28:36;;;;;;;;;;;;;;;15.97;73.18;99435.16;1086313;54;19954;-78
2022/06/08 03:29:38;;;;;;;;;;;;;;;16.02;72.82;99438.09;1086530;54;19947;-79
2022/06/08 03:30:41;;;;;;;;;;;;;;;16.09;72.65;99442.69;1086672;54;19938;-80
2022/06/08 03:31:43;;;;;;;;;;;;;;;16.06;72.78;99438.53;1086767;54;19949;-79
2022/06/08 03:32:47;;;;;;;;;;;;;;;16.18;72.39;99437.00;1086462;54;20034;-79
2022/06/08 03:33:48;;;;;;;;;;;;;;;16.23;72.08;99436.41;1086377;54;19951;-80
2022/06/08 03:34:52;;;;;;;;;;;;;;;16.22;72.10;99440.13;1086658;54;19938;-79
2022/06/08 03:35:53;;;;;;;;;;;;;;;16.26;71.97;99437.84;1086377;54;19958;-79
2022/06/08 03:36:57;;;;;;;;;;;;;;;16.17;72.12;99429.94;1086821;54;19942;-79
2022/06/08 03:37:59;;;;;;;;;;;;;;;16.26;71.90;99435.97;1086467;54;19934;-78
2022/06/08 03:39:03;;;;;;;;;;;;;;;16.33;71.75;99434.19;1086261;54;19947;-78
2022/06/08 03:40:08;;;;;;;;;;;;;;;16.34;71.69;99435.81;1086930;54;20014;-79
2022/06/08 03:41:10;;;;;;;;;;;;;;;16.26;71.78;99432.47;1086739;54;19946;-79
2022/06/08 03:42:14;;;;;;;;;;;;;;;16.25;71.98;99430.78;1086564;54;19946;-79
2022/06/08 03:43:18;;;;;;;;;;;;;;;16.17;72.16;99437.16;1086411;54;20038;-79
2022/06/08 03:44:23;;;;;;;;;;;;;;;16.20;72.05;99429.50;1086078;54;19947;-79
2022/06/08 03:45:26;;;;;;;;;;;;;;;16.17;72.12;99435.31;1085693;54;19950;-78
2022/06/08 03:46:30;;;;;;;;;;;;;;;16.26;71.93;99433.28;1085627;54;19946;-79
2022/06/08 03:47:36;;;;;;;;;;;;;;;16.32;71.55;99428.97;1086616;54;19965;-79
2022/06/08 03:48:41;;;;;;;;;;;;;;;16.31;71.97;99430.00;1086294;54;19939;-78
2022/06/08 03:49:42;;;;;;;;;;;;;;;16.25;71.81;99420.81;1086472;54;19939;-79
2022/06/08 03:50:47;;;;;;;;;;;;;;;16.19;71.99;99425.19;1086386;54;19953;-79
2022/06/08 03:51:49;;;;;;;;;;;;;;;16.26;72.12;99433.28;1086517;46;19951;-79
2022/06/08 03:52:57;;;;;;;;;;;;;;;16.21;71.87;99431.19;1086354;54;19962;-79
2022/06/08 03:54:00;;;;;;;;;;;;;;;16.29;71.51;99427.50;1085616;54;19950;-77
2022/06/08 03:55:06;;;;;;;;;;;;;;;16.22;72.05;99427.47;1085937;54;19990;-78
2022/06/08 03:56:08;;;;;;;;;;;;;;;16.16;72.20;99438.19;1086231;54;19954;-78
2022/06/08 03:57:14;;;;;;;;;;;;;;;16.18;72.03;99420.81;1086183;54;19946;-78
2022/06/08 03:58:21;;;;;;;;;;;;;;;16.28;71.72;99423.13;1085919;47;20057;-78
2022/06/08 03:59:22;;;;;;;;;;;;;;;16.35;71.55;99426.72;1085889;54;19962;-78
2022/06/08 04:00:27;;;;;;;;;;;;;;;16.35;71.12;99425.88;1085645;54;19947;-78
2022/06/08 04:01:29;;;;;;;;;;;;;;;16.36;71.37;99422.97;1086037;54;19947;-78
2022/06/08 04:02:33;;;;;;;;;;;;;;;16.41;71.32;99416.16;1085368;54;19946;-78
2022/06/08 04:03:34;;;;;;;;;;;;;;;16.44;71.14;99421.16;1086279;54;19946;-78
2022/06/08 04:04:38;;;;;;;;;;;;;;;16.34;71.08;99416.94;1086096;54;19950;-77
2022/06/08 04:05:39;;;;;;;;;;;;;;;16.26;71.76;99427.91;1086678;54;19954;-78
2022/06/08 04:06:43;;;;;;;;;;;;;;;16.20;71.92;99429.50;1086594;54;19962;-78
2022/06/08 04:07:44;;;;;;;;;;;;;;;16.11;72.37;99432.56;1086067;54;19954;-80
2022/06/08 04:08:48;;;;;;;;;;;;;;;16.13;72.31;99433.22;1086316;54;19950;-78
2022/06/08 04:09:49;;;;;;;;;;;;;;;16.16;71.98;99430.09;1086243;54;19951;-79
2022/06/08 04:10:53;;;;;;;;;;;;;;;16.14;72.13;99429.47;1085814;54;21099;-79
2022/06/08 04:11:54;;;;;;;;;;;;;;;16.06;72.58;99431.28;1086183;54;19970;-78
2022/06/08 04:12:58;;;;;;;;;;;;;;;16.03;73.12;99433.53;1086402;54;19977;-80
2022/06/08 04:14:02;;;;;;;;;;;;;;;16.08;72.61;99435.63;1086470;54;19974;-79
2022/06/08 04:15:07;;;;;;;;;;;;;;;16.09;73.11;99437.31;1086412;54;19953;-79
2022/06/08 04:16:08;;;;;;;;;;;;;;;16.13;72.79;99438.59;1086957;39;20391;-79
2022/06/08 04:17:12;;;;;;;;;;;;;;;16.18;72.66;99436.13;1085886;54;20712;-79
2022/06/08 04:18:14;;;;;;;;;;;;;;;16.31;72.06;99427.31;1085585;54;19950;-78
2022/06/08 04:19:18;;;;;;;;;;;;;;;16.41;71.64;99424.28;1084937;54;20018;-79
2022/06/08 04:20:20;;;;;;;;;;;;;;;16.35;71.70;99433.97;1086186;54;20687;-79
2022/06/08 04:21:24;;;;;;;;;;;;;;;16.30;71.87;99429.19;1086000;54;20026;-78
2022/06/08 04:22:31;;;;;;;;;;;;;;;16.33;72.08;99434.19;1086277;54;19939;-78
2022/06/08 04:23:32;;;;;;;;;;;;;;;16.32;71.75;99427.13;1085643;54;20449;-77
2022/06/08 04:24:36;;;;;;;;;;;;;;;16.44;71.74;99427.41;1086018;54;19970;-79
2022/06/08 04:25:39;;;;;;;;;;;;;;;16.45;71.63;99430.91;1086261;54;19939;-78
2022/06/08 04:26:44;;;;;;;;;;;;;;;16.47;71.59;99428.84;1086400;54;19946;-79
2022/06/08 04:27:45;;;;;;;;;;;;;;;16.48;71.26;99431.34;1085909;54;19947;-78
2022/06/08 04:28:49;;;;;;;;;;;;;;;16.57;70.88;99429.34;1085751;54;19950;-78
2022/06/08 04:29:53;;;;;;;;;;;;;;;16.59;70.85;99432.69;1085932;54;19958;-79
2022/06/08 04:30:56;;;;;;;;;;;;;;;16.45;71.55;99439.00;1086793;54;20700;-79
2022/06/08 04:31:58;;;;;;;;;;;;;;;16.48;71.32;99434.03;1087209;46;19935;-78
2022/06/08 04:33:02;;;;;;;;;;;;;;;16.43;71.15;99428.44;1086417;54;19993;-77
2022/06/08 04:34:04;;;;;;;;;;;;;;;16.48;70.99;99436.75;1085911;54;19954;-78
2022/06/08 04:35:09;;;;;;;;;;;;;;;16.55;70.82;99434.09;1084401;54;19946;-77
2022/06/08 04:36:10;;;;;;;;;;;;;;;16.61;70.35;99435.16;1084976;54;20033;-78
2022/06/08 04:37:14;;;;;;;;;;;;;;;16.65;70.02;99437.25;1085470;54;19947;-78
2022/06/08 04:38:16;;;;;;;;;;;;;;;16.62;70.55;99426.88;1085925;54;20015;-77
2022/06/08 04:39:20;;;;;;;;;;;;;;;16.54;70.73;99435.13;1089035;39;20400;-78
2022/06/08 04:40:22;;;;;;;;;;;;;;;16.67;70.18;99437.09;1085593;54;19951;-76
2022/06/08 04:41:26;;;;;;;;;;;;;;;16.67;70.03;99434.38;1085391;54;19985;-78
2022/06/08 04:42:27;;;;;;;;;;;;;;;16.65;70.21;99431.88;1085117;54;19951;-78
2022/06/08 04:43:31;;;;;;;;;;;;;;;16.65;70.30;99426.47;1085536;54;20688;-78
2022/06/08 04:44:33;;;;;;;;;;;;;;;16.60;70.81;99423.56;1086079;46;19947;-78
2022/06/08 04:45:39;;;;;;;;;;;;;;;16.71;70.23;99422.13;1085673;54;19946;-79
2022/06/08 04:46:40;;;;;;;;;;;;;;;16.66;70.01;99422.75;1085759;54;19939;-79
2022/06/08 04:47:44;;;;;;;;;;;;;;;16.77;69.79;99432.13;1085668;54;19953;-79
2022/06/08 04:48:46;;;;;;;;;;;;;;;16.82;69.60;99420.72;1086402;54;19974;-78
2022/06/08 04:49:51;;;;;;;;;;;;;;;16.85;69.64;99420.34;1086766;54;19946;-79
2022/06/08 04:50:52;;;;;;;;;;;;;;;16.86;69.60;99427.41;1087118;54;19939;-78
2022/06/08 04:51:56;;;;;;;;;;;;;;;16.87;69.61;99423.66;1086493;54;20003;-78
2022/06/08 04:52:58;;;;;;;;;;;;;;;16.83;69.48;99428.63;1086877;54;19934;-79
2022/06/08 04:54:02;;;;;;;;;;;;;;;16.78;69.17;99423.00;1086490;54;19946;-79
2022/06/08 04:55:07;;;;;;;;;;;;;;;16.79;69.73;99423.84;1086399;54;19946;-79
2022/06/08 04:56:08;;;;;;;;;;;;;;;16.81;69.39;99424.47;1085688;54;19978;-79
2022/06/08 04:57:13;;;;;;;;;;;;;;;16.75;69.48;99423.41;1085603;54;19954;-79
2022/06/08 04:58:14;;;;;;;;;;;;;;;16.78;69.36;99427.56;1085660;54;19954;-79
2022/06/08 04:59:18;;;;;;;;;;;;;;;16.78;69.29;99424.88;1087211;39;20356;-79
2022/06/08 05:00:21;;;;;;;;;;;;;;;16.77;69.45;99425.91;1085339;54;20425;-78
2022/06/08 05:01:27;;;;;;;;;;;;;;;16.86;69.05;99423.88;1085288;54;19970;-79
2022/06/08 05:02:44;;;;;;;;;;;;;;;16.92;68.95;99423.88;1086073;54;20441;-78
2022/06/08 05:03:48;;;;;;;;;;;;;;;16.81;69.14;99425.31;1085910;54;20034;-78
2022/06/08 05:04:49;;;;;;;;;;;;;;;16.58;69.75;99433.69;1085374;54;20031;-77
2022/06/08 05:05:53;;;;;;;;;;;;;;;16.68;69.84;99433.31;1085291;54;19951;-78
2022/06/08 05:06:54;;;;;;;;;;;;;;;16.76;69.26;99435.03;1085283;54;19947;-78
2022/06/08 05:07:58;;;;;;;;;;;;;;;16.81;69.34;99441.50;1084855;54;19950;-78
2022/06/08 05:08:59;;;;;;;;;;;;;;;16.71;69.45;99435.63;1085023;54;20425;-77
2022/06/08 05:10:04;;;;;;;;;;;;;;;16.76;69.65;99437.72;1084793;54;19946;-78
2022/06/08 05:11:08;;;;;;;;;;;;;;;16.73;69.41;99438.13;1084726;54;19950;-78
2022/06/08 05:12:09;;;;;;;;;;;;;;;16.72;69.64;99436.47;1085148;54;19970;-77
2022/06/08 05:13:13;;;;;;;;;;;;;;;16.59;70.09;99439.91;1085283;54;19945;-76
2022/06/08 05:14:14;;;;;;;;;;;;;;;16.63;69.96;99439.31;1085635;54;19950;-79
2022/06/08 05:15:20;;;;;;;;;;;;;;;16.66;69.84;99444.31;1085317;54;19970;-77
2022/06/08 05:16:27;;;;;;;;;;;;;;;16.71;69.49;99440.22;1085578;39;20593;-79
2022/06/08 05:17:28;;;;;;;;;;;;;;;16.73;69.63;99447.06;1085595;54;19950;-77
2022/06/08 05:18:31;;;;;;;;;;;;;;;16.62;69.90;99434.97;1085757;54;19942;-77
2022/06/08 05:19:32;;;;;;;;;;;;;;;16.60;70.21;99438.88;1086204;54;19950;-76
2022/06/08 05:20:37;;;;;;;;;;;;;;;16.69;69.76;99437.69;1086240;54;19954;-77
2022/06/08 05:21:38;;;;;;;;;;;;;;;16.74;69.43;99429.84;1086019;54;19946;-79
2022/06/08 05:22:42;;;;;;;;;;;;;;;16.73;69.41;99421.94;1085713;54;19953;-77
2022/06/08 05:23:46;;;;;;;;;;;;;;;16.76;69.28;99422.38;1086011;54;19950;-78
2022/06/08 05:24:47;;;;;;;;;;;;;;;16.78;69.24;99419.47;1086464;54;19994;-78
2022/06/08 05:25:52;;;;;;;;;;;;;;;16.83;69.31;99425.94;1087510;39;20357;-79
2022/06/08 05:26:53;;;;;;;;;;;;;;;16.87;69.10;99420.97;1088608;54;19979;-78
2022/06/08 05:28:03;;;;;;;;;;;;;;;16.91;68.75;99424.91;1088687;54;19946;-80
2022/06/08 05:29:08;;;;;;;;;;;;;;;16.87;68.90;99423.66;1088689;54;19942;-80
2022/06/08 05:30:12;;;;;;;;;;;;;;;16.87;68.88;99418.28;1088347;54;20023;-76
2022/06/08 05:31:13;;;;;;;;;;;;;;;16.94;68.76;99421.84;1088524;54;19954;-79
2022/06/08 05:32:20;;;;;;;;;;;;;;;16.95;68.34;99423.53;1088249;54;19946;-79
2022/06/08 05:33:21;;;;;;;;;;;;;;;16.84;68.85;99413.25;1088095;54;19945;-77
2022/06/08 05:34:25;;;;;;;;;;;;;;;16.96;68.52;99413.53;1087566;54;19946;-78
2022/06/08 05:35:27;;;;;;;;;;;;;;;16.96;68.49;99421.66;1087671;54;19949;-79
2022/06/08 05:36:35;;;;;;;;;;;;;;;16.92;68.57;99410.38;1088638;54;20012;-80
2022/06/08 05:37:36;;;;;;;;;;;;;;;16.91;68.36;99408.72;1096815;39;20572;-77
2022/06/08 05:38:41;;;;;;;;;;;;;;;16.98;68.35;99414.19;1088728;54;19927;-79
2022/06/08 05:39:43;;;;;;;;;;;;;;;17.02;67.81;99417.31;1088809;54;19962;-81
2022/06/08 05:40:57;;;;;;;;;;;;;;;17.03;67.83;99411.72;1088773;54;19922;-81
2022/06/08 05:42:01;;;;;;;;;;;;;;;17.08;67.89;99414.63;1088476;54;20007;-80